sensor_id;sensor_type;location;lat;lon;timestamp;pressure;altitude;pressure_sealevel;temperature;humidity
11856;BME280;5987;53.140;8.904;2023-07-29T00:01:35;100866.47;;;17.47;100.00
11856;BME280;5987;53.140;8.904;2023-07-29T00:04:38;100861.91;;;17.49;100.00
11856;BME280;5987;53.140;8.904;2023-07-29T00:07:43;100862.03;;;17.47;100.00
11856;BME280;5987;53.140;8.904;2023-07-29T00:10:47;100853.09;;;17.48;100.00
11856;BME280;5987;53.140;8.904;2023-07-29T00:13:50;100853.22;;;17.47;100.00
11856;BME280;5987;53.140;8.904;2023-07-29T00:16:55;100843.34;;;17.49;100.00
11856;BME280;5987;53.140;8.904;2023-07-29T00:19:58;100838.22;;;17.46;100.00
11856;BME280;5987;53.140;8.904;2023-07-29T00:23:03;100837.56;;;17.42;100.00
11856;BME280;5987;53.140;8.904;2023-07-29T00:26:07;100824.81;;;17.35;100.00
11856;BME280;5987;53.140;8.904;2023-07-29T00:29:10;100830.13;;;17.35;100.00
11856;BME280;5987;53.140;8.904;2023-07-29T00:32:14;100827.78;;;17.30;100.00
11856;BME280;5987;53.140;8.904;2023-07-29T00:35:18;100825.81;;;17.19;100.00
11856;BME280;5987;53.140;8.904;2023-07-29T00:38:23;100827.91;;;17.14;100.00
11856;BME280;5987;53.140;8.904;2023-07-29T00:41:26;100826.97;;;17.15;100.00
11856;BME280;5987;53.140;8.904;2023-07-29T00:44:30;100817.28;;;17.14;100.00
11856;BME280;5987;53.140;8.904;2023-07-29T00:47:34;100813.78;;;17.13;100.00
11856;BME280;5987;53.140;8.904;2023-07-29T00:50:38;100811.78;;;17.17;100.00
11856;BME280;5987;53.140;8.904;2023-07-29T00:53:44;100818.78;;;17.18;100.00
11856;BME280;5987;53.140;8.904;2023-07-29T00:56:47;100822.75;;;17.25;100.00
11856;BME280;5987;53.140;8.904;2023-07-29T00:59:51;100821.06;;;17.24;100.00
11856;BME280;5987;53.140;8.904;2023-07-29T01:02:55;100819.16;;;17.26;100.00
11856;BME280;5987;53.140;8.904;2023-07-29T01:06:18;100820.09;;;17.25;100.00
11856;BME280;5987;53.140;8.904;2023-07-29T01:09:36;100816.50;;;17.26;100.00
11856;BME280;5987;53.140;8.904;2023-07-29T01:12:53;100817.44;;;17.25;100.00
11856;BME280;5987;53.140;8.904;2023-07-29T01:16:04;100810.97;;;17.29;100.00
11856;BME280;5987;53.140;8.904;2023-07-29T01:22:42;100814.63;;;17.28;100.00
11856;BME280;5987;53.140;8.904;2023-07-29T01:25:48;100807.13;;;17.21;100.00
11856;BME280;5987;53.140;8.904;2023-07-29T01:28:51;100812.19;;;17.11;100.00
11856;BME280;5987;53.140;8.904;2023-07-29T01:32:04;100809.94;;;17.05;100.00
11856;BME280;5987;53.140;8.904;2023-07-29T01:35:26;100803.28;;;17.12;100.00
11856;BME280;5987;53.140;8.904;2023-07-29T01:38:35;100812.97;;;16.98;100.00
11856;BME280;5987;53.140;8.904;2023-07-29T01:41:43;100806.94;;;16.96;100.00
11856;BME280;5987;53.140;8.904;2023-07-29T01:44:47;100804.28;;;16.96;100.00
11856;BME280;5987;53.140;8.904;2023-07-29T01:47:50;100791.31;;;16.92;100.00
11856;BME280;5987;53.140;8.904;2023-07-29T01:50:54;100787.91;;;16.90;100.00
11856;BME280;5987;53.140;8.904;2023-07-29T01:53:58;100797.91;;;16.85;100.00
11856;BME280;5987;53.140;8.904;2023-07-29T01:57:04;100791.19;;;16.79;100.00
11856;BME280;5987;53.140;8.904;2023-07-29T02:00:09;100784.59;;;16.72;100.00
11856;BME280;5987;53.140;8.904;2023-07-29T02:03:12;100765.28;;;16.70;100.00
11856;BME280;5987;53.140;8.904;2023-07-29T02:06:16;100783.47;;;16.61;100.00
11856;BME280;5987;53.140;8.904;2023-07-29T02:09:20;100778.19;;;16.61;100.00
11856;BME280;5987;53.140;8.904;2023-07-29T02:12:25;100787.06;;;16.60;100.00
11856;BME280;5987;53.140;8.904;2023-07-29T02:15:29;100789.44;;;16.51;100.00
11856;BME280;5987;53.140;8.904;2023-07-29T02:18:32;100789.53;;;16.49;100.00
11856;BME280;5987;53.140;8.904;2023-07-29T02:21:36;100787.00;;;16.48;100.00
11856;BME280;5987;53.140;8.904;2023-07-29T02:24:40;100783.50;;;16.47;100.00
11856;BME280;5987;53.140;8.904;2023-07-29T02:27:45;100774.88;;;16.43;100.00
11856;BME280;5987;53.140;8.904;2023-07-29T02:31:09;100783.59;;;16.45;100.00
11856;BME280;5987;53.140;8.904;2023-07-29T02:34:14;100781.41;;;16.38;100.00
11856;BME280;5987;53.140;8.904;2023-07-29T02:37:17;100775.44;;;16.34;100.00
11856;BME280;5987;53.140;8.904;2023-07-29T02:40:21;100784.91;;;16.38;100.00
11856;BME280;5987;53.140;8.904;2023-07-29T02:43:26;100772.88;;;16.33;100.00
11856;BME280;5987;53.140;8.904;2023-07-29T02:46:30;100768.25;;;16.36;100.00
11856;BME280;5987;53.140;8.904;2023-07-29T02:49:33;100770.91;;;16.22;100.00
11856;BME280;5987;53.140;8.904;2023-07-29T02:52:38;100773.66;;;16.20;100.00
11856;BME280;5987;53.140;8.904;2023-07-29T02:55:41;100771.94;;;16.19;100.00
11856;BME280;5987;53.140;8.904;2023-07-29T02:58:46;100775.34;;;16.21;100.00
11856;BME280;5987;53.140;8.904;2023-07-29T03:01:50;100776.03;;;16.10;100.00
11856;BME280;5987;53.140;8.904;2023-07-29T03:04:53;100774.13;;;16.12;100.00
11856;BME280;5987;53.140;8.904;2023-07-29T03:07:58;100763.72;;;16.09;100.00
11856;BME280;5987;53.140;8.904;2023-07-29T03:11:06;100767.97;;;16.12;100.00
11856;BME280;5987;53.140;8.904;2023-07-29T03:14:11;100768.19;;;16.09;100.00
11856;BME280;5987;53.140;8.904;2023-07-29T03:17:15;100777.16;;;16.06;100.00
11856;BME280;5987;53.140;8.904;2023-07-29T03:20:20;100777.78;;;15.95;100.00
11856;BME280;5987;53.140;8.904;2023-07-29T03:23:24;100775.91;;;15.98;100.00
11856;BME280;5987;53.140;8.904;2023-07-29T03:26:27;100774.22;;;15.97;100.00
11856;BME280;5987;53.140;8.904;2023-07-29T03:29:33;100773.19;;;15.99;100.00
11856;BME280;5987;53.140;8.904;2023-07-29T03:32:42;100775.34;;;15.92;100.00
11856;BME280;5987;53.140;8.904;2023-07-29T03:35:47;100778.94;;;15.91;100.00
11856;BME280;5987;53.140;8.904;2023-07-29T03:38:50;100785.94;;;15.92;100.00
11856;BME280;5987;53.140;8.904;2023-07-29T03:41:54;100778.38;;;16.01;100.00
11856;BME280;5987;53.140;8.904;2023-07-29T03:44:59;100775.34;;;16.07;100.00
11856;BME280;5987;53.140;8.904;2023-07-29T03:48:04;100772.31;;;16.13;100.00
11856;BME280;5987;53.140;8.904;2023-07-29T03:51:08;100772.31;;;16.13;100.00
11856;BME280;5987;53.140;8.904;2023-07-29T03:54:11;100764.19;;;16.16;100.00
11856;BME280;5987;53.140;8.904;2023-07-29T03:57:15;100750.56;;;16.22;100.00
11856;BME280;5987;53.140;8.904;2023-07-29T04:00:20;100743.00;;;16.31;100.00
11856;BME280;5987;53.140;8.904;2023-07-29T04:03:24;100737.50;;;16.34;100.00
11856;BME280;5987;53.140;8.904;2023-07-29T04:06:27;100736.34;;;16.38;100.00
11856;BME280;5987;53.140;8.904;2023-07-29T04:09:31;100741.47;;;16.41;100.00
11856;BME280;5987;53.140;8.904;2023-07-29T04:12:35;100746.22;;;16.36;100.00
11856;BME280;5987;53.140;8.904;2023-07-29T04:15:40;100766.34;;;16.38;100.00
11856;BME280;5987;53.140;8.904;2023-07-29T04:18:43;100744.97;;;16.41;100.00
11856;BME280;5987;53.140;8.904;2023-07-29T04:21:47;100748.47;;;16.42;100.00
11856;BME280;5987;53.140;8.904;2023-07-29T04:24:52;100747.13;;;16.49;100.00
11856;BME280;5987;53.140;8.904;2023-07-29T04:27:56;100738.72;;;16.42;100.00
11856;BME280;5987;53.140;8.904;2023-07-29T04:31:02;100742.03;;;16.46;100.00
11856;BME280;5987;53.140;8.904;2023-07-29T04:34:05;100743.75;;;16.47;100.00
11856;BME280;5987;53.140;8.904;2023-07-29T04:37:09;100738.97;;;16.52;100.00
11856;BME280;5987;53.140;8.904;2023-07-29T04:40:13;100743.91;;;16.58;100.00
11856;BME280;5987;53.140;8.904;2023-07-29T04:43:16;100738.72;;;16.57;100.00
11856;BME280;5987;53.140;8.904;2023-07-29T04:46:21;100741.38;;;16.57;100.00
11856;BME280;5987;53.140;8.904;2023-07-29T04:49:25;100738.63;;;16.58;100.00
11856;BME280;5987;53.140;8.904;2023-07-29T04:52:28;100732.53;;;16.56;100.00
11856;BME280;5987;53.140;8.904;2023-07-29T04:55:32;100726.41;;;16.56;100.00
11856;BME280;5987;53.140;8.904;2023-07-29T04:58:36;100729.69;;;16.59;100.00
11856;BME280;5987;53.140;8.904;2023-07-29T05:01:40;100726.09;;;16.60;100.00
11856;BME280;5987;53.140;8.904;2023-07-29T05:04:45;100721.91;;;16.71;100.00
11856;BME280;5987;53.140;8.904;2023-07-29T05:07:49;100722.47;;;16.76;100.00
11856;BME280;5987;53.140;8.904;2023-07-29T05:10:53;100720.75;;;16.75;100.00
11856;BME280;5987;53.140;8.904;2023-07-29T05:13:57;100721.72;;;16.74;100.00
11856;BME280;5987;53.140;8.904;2023-07-29T05:17:02;100719.81;;;16.76;100.00
11856;BME280;5987;53.140;8.904;2023-07-29T05:20:07;100711.53;;;16.80;100.00
11856;BME280;5987;53.140;8.904;2023-07-29T05:23:11;100718.53;;;16.96;100.00
11856;BME280;5987;53.140;8.904;2023-07-29T05:26:15;100712.59;;;16.92;100.00
11856;BME280;5987;53.140;8.904;2023-07-29T05:29:18;100711.78;;;17.05;100.00
11856;BME280;5987;53.140;8.904;2023-07-29T05:32:23;100713.28;;;17.09;100.00
11856;BME280;5987;53.140;8.904;2023-07-29T05:35:27;100710.78;;;17.20;100.00
11856;BME280;5987;53.140;8.904;2023-07-29T05:38:31;100704.94;;;17.28;100.00
11856;BME280;5987;53.140;8.904;2023-07-29T05:41:34;100713.56;;;17.44;100.00
11856;BME280;5987;53.140;8.904;2023-07-29T05:44:38;100710.28;;;17.41;100.00
11856;BME280;5987;53.140;8.904;2023-07-29T05:47:43;100709.00;;;17.46;100.00
11856;BME280;5987;53.140;8.904;2023-07-29T05:50:46;100703.19;;;17.54;100.00
11856;BME280;5987;53.140;8.904;2023-07-29T05:53:50;100709.31;;;17.42;100.00
11856;BME280;5987;53.140;8.904;2023-07-29T05:56:54;100707.50;;;17.29;100.00
11856;BME280;5987;53.140;8.904;2023-07-29T05:59:57;100710.91;;;17.31;100.00
11856;BME280;5987;53.140;8.904;2023-07-29T06:03:02;100709.53;;;17.39;100.00
11856;BME280;5987;53.140;8.904;2023-07-29T06:06:06;100707.72;;;17.39;100.00
11856;BME280;5987;53.140;8.904;2023-07-29T06:09:10;100718.66;;;17.47;100.00
11856;BME280;5987;53.140;8.904;2023-07-29T06:12:13;100719.31;;;17.51;100.00
11856;BME280;5987;53.140;8.904;2023-07-29T06:15:17;100716.47;;;17.54;100.00
11856;BME280;5987;53.140;8.904;2023-07-29T06:18:25;100709.78;;;17.61;100.00
11856;BME280;5987;53.140;8.904;2023-07-29T06:21:29;100714.03;;;17.77;100.00
11856;BME280;5987;53.140;8.904;2023-07-29T06:24:32;100716.13;;;17.84;100.00
11856;BME280;5987;53.140;8.904;2023-07-29T06:27:36;100716.91;;;17.74;100.00
11856;BME280;5987;53.140;8.904;2023-07-29T06:30:40;100719.56;;;17.74;100.00
11856;BME280;5987;53.140;8.904;2023-07-29T06:33:46;100723.81;;;17.89;100.00
11856;BME280;5987;53.140;8.904;2023-07-29T06:36:50;100723.03;;;17.87;100.00
11856;BME280;5987;53.140;8.904;2023-07-29T06:39:54;100725.50;;;17.77;100.00
11856;BME280;5987;53.140;8.904;2023-07-29T06:42:57;100727.94;;;17.80;100.00
11856;BME280;5987;53.140;8.904;2023-07-29T06:46:01;100727.75;;;17.96;100.00
11856;BME280;5987;53.140;8.904;2023-07-29T06:49:06;100722.53;;;18.08;100.00
11856;BME280;5987;53.140;8.904;2023-07-29T06:52:10;100721.91;;;18.04;100.00
11856;BME280;5987;53.140;8.904;2023-07-29T06:55:14;100713.19;;;18.15;100.00
11856;BME280;5987;53.140;8.904;2023-07-29T06:58:17;100702.22;;;18.20;100.00
11856;BME280;5987;53.140;8.904;2023-07-29T07:01:21;100696.91;;;18.20;100.00
11856;BME280;5987;53.140;8.904;2023-07-29T07:04:26;100696.78;;;18.21;100.00
11856;BME280;5987;53.140;8.904;2023-07-29T07:07:30;100683.31;;;18.24;100.00
11856;BME280;5987;53.140;8.904;2023-07-29T07:10:33;100681.94;;;18.19;100.00
11856;BME280;5987;53.140;8.904;2023-07-29T07:13:37;100683.44;;;18.47;100.00
11856;BME280;5987;53.140;8.904;2023-07-29T07:16:40;100679.66;;;18.62;100.00
11856;BME280;5987;53.140;8.904;2023-07-29T07:19:46;100667.91;;;18.78;100.00
11856;BME280;5987;53.140;8.904;2023-07-29T07:22:49;100661.69;;;18.90;100.00
11856;BME280;5987;53.140;8.904;2023-07-29T07:25:53;100656.34;;;18.90;100.00
11856;BME280;5987;53.140;8.904;2023-07-29T07:28:57;100664.06;;;18.82;100.00
11856;BME280;5987;53.140;8.904;2023-07-29T07:32:00;100663.38;;;18.91;100.00
11856;BME280;5987;53.140;8.904;2023-07-29T07:35:06;100655.72;;;18.86;100.00
11856;BME280;5987;53.140;8.904;2023-07-29T07:38:10;100663.16;;;18.94;100.00
11856;BME280;5987;53.140;8.904;2023-07-29T07:41:14;100663.09;;;19.07;100.00
11856;BME280;5987;53.140;8.904;2023-07-29T07:44:17;100655.47;;;19.14;100.00
11856;BME280;5987;53.140;8.904;2023-07-29T07:47:21;100652.59;;;19.17;100.00
11856;BME280;5987;53.140;8.904;2023-07-29T07:50:29;100652.97;;;18.88;100.00
11856;BME280;5987;53.140;8.904;2023-07-29T07:53:33;100658.94;;;18.79;100.00
11856;BME280;5987;53.140;8.904;2023-07-29T07:56:36;100646.84;;;18.75;100.00
11856;BME280;5987;53.140;8.904;2023-07-29T07:59:40;100641.97;;;18.68;100.00
11856;BME280;5987;53.140;8.904;2023-07-29T08:02:44;100644.75;;;18.67;100.00
11856;BME280;5987;53.140;8.904;2023-07-29T08:05:49;100647.66;;;18.88;100.00
11856;BME280;5987;53.140;8.904;2023-07-29T08:08:53;100645.78;;;19.01;100.00
11856;BME280;5987;53.140;8.904;2023-07-29T08:11:57;100645.38;;;18.95;100.00
11856;BME280;5987;53.140;8.904;2023-07-29T08:15:01;100622.91;;;18.99;100.00
11856;BME280;5987;53.140;8.904;2023-07-29T08:18:05;100620.19;;;19.23;100.00
11856;BME280;5987;53.140;8.904;2023-07-29T08:21:10;100607.53;;;19.49;100.00
11856;BME280;5987;53.140;8.904;2023-07-29T08:24:13;100597.72;;;19.61;100.00
11856;BME280;5987;53.140;8.904;2023-07-29T08:27:17;100594.03;;;20.19;100.00
11856;BME280;5987;53.140;8.904;2023-07-29T08:30:21;100592.16;;;20.42;100.00
11856;BME280;5987;53.140;8.904;2023-07-29T08:33:26;100583.66;;;20.81;100.00
11856;BME280;5987;53.140;8.904;2023-07-29T08:36:31;100578.81;;;21.38;100.00
11856;BME280;5987;53.140;8.904;2023-07-29T08:39:35;100575.53;;;21.03;100.00
11856;BME280;5987;53.140;8.904;2023-07-29T08:42:42;100572.19;;;20.25;100.00
11856;BME280;5987;53.140;8.904;2023-07-29T08:45:49;100585.34;;;20.05;100.00
11856;BME280;5987;53.140;8.904;2023-07-29T08:48:55;100592.63;;;20.03;100.00
11856;BME280;5987;53.140;8.904;2023-07-29T08:52:01;100594.47;;;19.92;100.00
11856;BME280;5987;53.140;8.904;2023-07-29T08:55:06;100595.44;;;19.79;100.00
11856;BME280;5987;53.140;8.904;2023-07-29T08:58:11;100595.53;;;20.00;100.00
11856;BME280;5987;53.140;8.904;2023-07-29T09:01:15;100582.28;;;20.21;100.00
11856;BME280;5987;53.140;8.904;2023-07-29T09:04:19;100580.53;;;20.64;100.00
11856;BME280;5987;53.140;8.904;2023-07-29T09:07:25;100580.81;;;20.61;100.00
11856;BME280;5987;53.140;8.904;2023-07-29T09:10:29;100574.63;;;20.93;100.00
11856;BME280;5987;53.140;8.904;2023-07-29T09:13:33;100581.03;;;20.69;100.00
11856;BME280;5987;53.140;8.904;2023-07-29T09:16:37;100579.81;;;21.16;100.00
11856;BME280;5987;53.140;8.904;2023-07-29T09:19:41;100570.44;;;21.00;100.00
11856;BME280;5987;53.140;8.904;2023-07-29T09:22:46;100576.19;;;21.17;100.00
11856;BME280;5987;53.140;8.904;2023-07-29T09:25:50;100572.28;;;21.21;100.00
11856;BME280;5987;53.140;8.904;2023-07-29T09:29:03;100566.31;;;21.69;100.00
11856;BME280;5987;53.140;8.904;2023-07-29T09:32:21;100569.13;;;21.68;100.00
11856;BME280;5987;53.140;8.904;2023-07-29T09:35:28;100578.66;;;21.08;100.00
11856;BME280;5987;53.140;8.904;2023-07-29T09:38:34;100563.97;;;21.24;100.00
11856;BME280;5987;53.140;8.904;2023-07-29T09:41:39;100567.94;;;20.66;100.00
11856;BME280;5987;53.140;8.904;2023-07-29T09:44:42;100564.53;;;20.64;100.00
11856;BME280;5987;53.140;8.904;2023-07-29T09:47:47;100558.28;;;21.69;100.00
11856;BME280;5987;53.140;8.904;2023-07-29T09:50:50;100552.34;;;22.16;100.00
11856;BME280;5987;53.140;8.904;2023-07-29T09:53:56;100543.44;;;21.96;100.00
11856;BME280;5987;53.140;8.904;2023-07-29T09:57:00;100561.22;;;21.35;100.00
11856;BME280;5987;53.140;8.904;2023-07-29T10:00:06;100547.66;;;21.48;100.00
11856;BME280;5987;53.140;8.904;2023-07-29T10:03:15;100552.94;;;21.69;100.00
11856;BME280;5987;53.140;8.904;2023-07-29T10:06:19;100548.31;;;21.71;100.00
11856;BME280;5987;53.140;8.904;2023-07-29T10:09:26;100548.75;;;21.76;100.00
11856;BME280;5987;53.140;8.904;2023-07-29T10:12:31;100541.78;;;22.24;100.00
11856;BME280;5987;53.140;8.904;2023-07-29T10:15:36;100538.81;;;22.18;100.00
11856;BME280;5987;53.140;8.904;2023-07-29T10:18:40;100535.63;;;22.24;100.00
11856;BME280;5987;53.140;8.904;2023-07-29T10:21:48;100538.97;;;22.26;100.00
11856;BME280;5987;53.140;8.904;2023-07-29T10:24:59;100528.16;;;22.37;100.00
11856;BME280;5987;53.140;8.904;2023-07-29T10:28:11;100532.50;;;22.19;100.00
11856;BME280;5987;53.140;8.904;2023-07-29T10:31:16;100536.69;;;21.92;100.00
11856;BME280;5987;53.140;8.904;2023-07-29T10:34:21;100526.69;;;21.84;100.00
11856;BME280;5987;53.140;8.904;2023-07-29T10:37:26;100535.84;;;21.82;100.00
11856;BME280;5987;53.140;8.904;2023-07-29T10:40:47;100528.72;;;22.31;100.00
11856;BME280;5987;53.140;8.904;2023-07-29T10:43:51;100539.69;;;22.08;100.00
11856;BME280;5987;53.140;8.904;2023-07-29T10:46:56;100546.59;;;21.61;100.00
11856;BME280;5987;53.140;8.904;2023-07-29T10:50:00;100549.63;;;20.94;100.00
11856;BME280;5987;53.140;8.904;2023-07-29T10:53:03;100547.84;;;21.04;100.00
11856;BME280;5987;53.140;8.904;2023-07-29T10:56:09;100552.94;;;21.38;100.00
11856;BME280;5987;53.140;8.904;2023-07-29T10:59:32;100553.66;;;21.10;100.00
11856;BME280;5987;53.140;8.904;2023-07-29T11:02:38;100549.88;;;20.59;100.00
11856;BME280;5987;53.140;8.904;2023-07-29T11:05:47;100550.00;;;20.68;100.00
11856;BME280;5987;53.140;8.904;2023-07-29T11:08:51;100548.25;;;20.79;100.00
11856;BME280;5987;53.140;8.904;2023-07-29T11:12:05;100535.25;;;21.47;100.00
11856;BME280;5987;53.140;8.904;2023-07-29T11:15:24;100530.06;;;21.86;100.00
11856;BME280;5987;53.140;8.904;2023-07-29T11:18:31;100534.88;;;22.12;100.00
11856;BME280;5987;53.140;8.904;2023-07-29T11:21:36;100532.78;;;22.06;100.00
11856;BME280;5987;53.140;8.904;2023-07-29T11:24:42;100532.19;;;21.83;100.00
11856;BME280;5987;53.140;8.904;2023-07-29T11:27:47;100528.38;;;21.95;100.00
11856;BME280;5987;53.140;8.904;2023-07-29T11:30:52;100531.19;;;21.84;100.00
11856;BME280;5987;53.140;8.904;2023-07-29T11:33:55;100535.38;;;21.76;100.00
11856;BME280;5987;53.140;8.904;2023-07-29T11:36:59;100532.50;;;21.58;100.00
11856;BME280;5987;53.140;8.904;2023-07-29T11:40:04;100537.44;;;21.53;100.00
11856;BME280;5987;53.140;8.904;2023-07-29T11:43:17;100548.94;;;21.23;100.00
11856;BME280;5987;53.140;8.904;2023-07-29T11:46:22;100553.97;;;20.95;100.00
11856;BME280;5987;53.140;8.904;2023-07-29T11:49:27;100555.75;;;21.37;100.00
11856;BME280;5987;53.140;8.904;2023-07-29T11:52:31;100551.38;;;21.36;100.00
11856;BME280;5987;53.140;8.904;2023-07-29T11:55:36;100552.31;;;21.56;100.00
11856;BME280;5987;53.140;8.904;2023-07-29T11:58:42;100555.44;;;22.12;100.00
11856;BME280;5987;53.140;8.904;2023-07-29T12:01:46;100552.22;;;21.57;100.00
11856;BME280;5987;53.140;8.904;2023-07-29T12:04:50;100566.75;;;21.44;100.00
11856;BME280;5987;53.140;8.904;2023-07-29T12:07:54;100565.59;;;21.36;100.00
11856;BME280;5987;53.140;8.904;2023-07-29T12:10:58;100574.56;;;21.56;100.00
11856;BME280;5987;53.140;8.904;2023-07-29T12:14:07;100566.69;;;21.96;100.00
11856;BME280;5987;53.140;8.904;2023-07-29T12:17:10;100568.50;;;21.95;100.00
11856;BME280;5987;53.140;8.904;2023-07-29T12:20:14;100565.44;;;22.09;100.00
11856;BME280;5987;53.140;8.904;2023-07-29T12:23:24;100565.84;;;22.15;100.00
11856;BME280;5987;53.140;8.904;2023-07-29T12:26:29;100560.56;;;22.34;100.00
11856;BME280;5987;53.140;8.904;2023-07-29T12:29:40;100560.81;;;22.31;100.00
11856;BME280;5987;53.140;8.904;2023-07-29T12:32:45;100564.50;;;22.50;100.00
11856;BME280;5987;53.140;8.904;2023-07-29T12:35:51;100559.44;;;22.47;100.00
11856;BME280;5987;53.140;8.904;2023-07-29T12:38:59;100564.06;;;22.44;100.00
11856;BME280;5987;53.140;8.904;2023-07-29T12:42:03;100554.09;;;22.56;100.00
11856;BME280;5987;53.140;8.904;2023-07-29T12:45:09;100560.00;;;22.40;100.00
11856;BME280;5987;53.140;8.904;2023-07-29T12:48:13;100557.44;;;22.39;100.00
11856;BME280;5987;53.140;8.904;2023-07-29T12:51:17;100551.56;;;22.55;100.00
11856;BME280;5987;53.140;8.904;2023-07-29T12:54:21;100545.88;;;22.87;100.00
11856;BME280;5987;53.140;8.904;2023-07-29T12:57:24;100539.41;;;22.90;100.00
11856;BME280;5987;53.140;8.904;2023-07-29T13:00:30;100534.91;;;22.61;100.00
11856;BME280;5987;53.140;8.904;2023-07-29T13:03:34;100537.50;;;23.10;100.00
11856;BME280;5987;53.140;8.904;2023-07-29T13:06:38;100544.38;;;23.32;100.00
11856;BME280;5987;53.140;8.904;2023-07-29T13:09:42;100534.72;;;23.49;100.00
11856;BME280;5987;53.140;8.904;2023-07-29T13:12:46;100537.78;;;23.26;100.00
11856;BME280;5987;53.140;8.904;2023-07-29T13:15:52;100533.47;;;22.96;100.00
11856;BME280;5987;53.140;8.904;2023-07-29T13:18:56;100534.56;;;23.13;100.00
11856;BME280;5987;53.140;8.904;2023-07-29T13:22:00;100533.03;;;22.91;100.00
11856;BME280;5987;53.140;8.904;2023-07-29T13:25:05;100527.81;;;22.99;100.00
11856;BME280;5987;53.140;8.904;2023-07-29T13:28:10;100529.81;;;22.87;100.00
11856;BME280;5987;53.140;8.904;2023-07-29T13:31:16;100528.53;;;23.01;100.00
11856;BME280;5987;53.140;8.904;2023-07-29T13:34:20;100528.38;;;23.12;100.00
11856;BME280;5987;53.140;8.904;2023-07-29T13:37:24;100528.50;;;23.21;100.00
11856;BME280;5987;53.140;8.904;2023-07-29T13:40:28;100529.78;;;23.17;100.00
11856;BME280;5987;53.140;8.904;2023-07-29T13:43:32;100528.84;;;22.78;100.00
11856;BME280;5987;53.140;8.904;2023-07-29T13:46:37;100528.50;;;23.21;100.00
11856;BME280;5987;53.140;8.904;2023-07-29T13:49:41;100515.97;;;23.11;100.00
11856;BME280;5987;53.140;8.904;2023-07-29T13:52:45;100522.44;;;23.19;100.00
11856;BME280;5987;53.140;8.904;2023-07-29T13:55:49;100520.50;;;23.01;100.00
11856;BME280;5987;53.140;8.904;2023-07-29T13:58:52;100514.28;;;22.91;100.00
11856;BME280;5987;53.140;8.904;2023-07-29T14:01:57;100514.88;;;22.94;100.00
11856;BME280;5987;53.140;8.904;2023-07-29T14:05:01;100511.53;;;22.83;100.00
11856;BME280;5987;53.140;8.904;2023-07-29T14:08:05;100510.81;;;22.71;100.00
11856;BME280;5987;53.140;8.904;2023-07-29T14:11:08;100516.88;;;22.83;100.00
11856;BME280;5987;53.140;8.904;2023-07-29T14:14:12;100515.19;;;22.82;100.00
11856;BME280;5987;53.140;8.904;2023-07-29T14:17:17;100519.94;;;22.88;100.00
11856;BME280;5987;53.140;8.904;2023-07-29T14:20:21;100517.00;;;23.94;100.00
11856;BME280;5987;53.140;8.904;2023-07-29T14:23:25;100514.81;;;23.52;100.00
11856;BME280;5987;53.140;8.904;2023-07-29T14:26:28;100509.63;;;23.03;100.00
11856;BME280;5987;53.140;8.904;2023-07-29T14:29:32;100522.22;;;22.92;100.00
11856;BME280;5987;53.140;8.904;2023-07-29T14:32:37;100528.09;;;22.96;100.00
11856;BME280;5987;53.140;8.904;2023-07-29T14:35:41;100521.63;;;22.89;100.00
11856;BME280;5987;53.140;8.904;2023-07-29T14:38:44;100517.69;;;22.93;100.00
11856;BME280;5987;53.140;8.904;2023-07-29T14:41:48;100515.47;;;23.26;100.00
11856;BME280;5987;53.140;8.904;2023-07-29T14:44:51;100510.88;;;23.08;100.00
11856;BME280;5987;53.140;8.904;2023-07-29T14:47:57;100516.00;;;22.92;100.00
11856;BME280;5987;53.140;8.904;2023-07-29T14:51:00;100517.22;;;22.40;100.00
11856;BME280;5987;53.140;8.904;2023-07-29T14:54:04;100524.78;;;22.25;100.00
11856;BME280;5987;53.140;8.904;2023-07-29T14:57:09;100551.72;;;21.83;100.00
11856;BME280;5987;53.140;8.904;2023-07-29T15:00:13;100557.38;;;20.97;100.00
11856;BME280;5987;53.140;8.904;2023-07-29T15:03:18;100563.88;;;20.51;100.00
11856;BME280;5987;53.140;8.904;2023-07-29T15:06:22;100586.31;;;20.04;100.00
11856;BME280;5987;53.140;8.904;2023-07-29T15:09:26;100590.44;;;19.52;100.00
11856;BME280;5987;53.140;8.904;2023-07-29T15:12:30;100612.19;;;19.12;100.00
11856;BME280;5987;53.140;8.904;2023-07-29T15:15:33;100610.50;;;18.86;100.00
11856;BME280;5987;53.140;8.904;2023-07-29T15:18:38;100611.75;;;18.21;100.00
11856;BME280;5987;53.140;8.904;2023-07-29T15:21:42;100619.69;;;17.71;100.00
11856;BME280;5987;53.140;8.904;2023-07-29T15:24:46;100608.13;;;17.46;100.00
11856;BME280;5987;53.140;8.904;2023-07-29T15:27:50;100626.31;;;17.53;100.00
11856;BME280;5987;53.140;8.904;2023-07-29T15:30:53;100632.88;;;17.47;100.00
11856;BME280;5987;53.140;8.904;2023-07-29T15:33:59;100624.16;;;17.83;100.00
11856;BME280;5987;53.140;8.904;2023-07-29T15:37:03;100619.66;;;18.10;100.00
11856;BME280;5987;53.140;8.904;2023-07-29T15:40:08;100624.66;;;18.39;100.00
11856;BME280;5987;53.140;8.904;2023-07-29T15:43:12;100620.78;;;18.56;100.00
11856;BME280;5987;53.140;8.904;2023-07-29T15:46:16;100607.53;;;18.67;100.00
11856;BME280;5987;53.140;8.904;2023-07-29T15:49:21;100605.53;;;18.82;100.00
11856;BME280;5987;53.140;8.904;2023-07-29T15:52:25;100606.78;;;18.89;100.00
11856;BME280;5987;53.140;8.904;2023-07-29T15:55:29;100610.63;;;18.85;100.00
11856;BME280;5987;53.140;8.904;2023-07-29T15:58:33;100609.38;;;18.78;100.00
11856;BME280;5987;53.140;8.904;2023-07-29T16:01:37;100608.63;;;18.76;100.00
11856;BME280;5987;53.140;8.904;2023-07-29T16:04:42;100610.66;;;18.61;100.00
11856;BME280;5987;53.140;8.904;2023-07-29T16:07:46;100631.09;;;18.72;100.00
11856;BME280;5987;53.140;8.904;2023-07-29T16:10:50;100626.59;;;18.61;100.00